sensor_id;sensor_type;location;lat;lon;timestamp;temperature;humidity
18998;DHT22;9632;51.018;4.284;2023-07-29T00:01:27;21.20;99.90
18998;DHT22;9632;51.018;4.284;2023-07-29T00:03:53;21.10;99.90
18998;DHT22;9632;51.018;4.284;2023-07-29T00:06:18;21.20;99.90
18998;DHT22;9632;51.018;4.284;2023-07-29T00:08:44;21.10;99.90
18998;DHT22;9632;51.018;4.284;2023-07-29T00:11:10;21.10;99.90
18998;DHT22;9632;51.018;4.284;2023-07-29T00:13:35;21.10;99.90
18998;DHT22;9632;51.018;4.284;2023-07-29T00:16:01;21.10;99.90
18998;DHT22;9632;51.018;4.284;2023-07-29T00:18:26;21.00;99.90
18998;DHT22;9632;51.018;4.284;2023-07-29T00:20:53;21.00;99.90
18998;DHT22;9632;51.018;4.284;2023-07-29T00:23:18;21.00;99.90
18998;DHT22;9632;51.018;4.284;2023-07-29T00:25:45;21.00;99.90
18998;DHT22;9632;51.018;4.284;2023-07-29T00:28:11;20.90;99.90
18998;DHT22;9632;51.018;4.284;2023-07-29T00:30:37;20.90;99.90
18998;DHT22;9632;51.018;4.284;2023-07-29T00:33:03;20.90;99.90
18998;DHT22;9632;51.018;4.284;2023-07-29T00:35:28;20.80;99.90
18998;DHT22;9632;51.018;4.284;2023-07-29T00:37:54;20.80;99.90
18998;DHT22;9632;51.018;4.284;2023-07-29T00:40:21;20.80;99.90
18998;DHT22;9632;51.018;4.284;2023-07-29T00:42:47;20.80;99.90
18998;DHT22;9632;51.018;4.284;2023-07-29T00:45:13;20.80;99.90
18998;DHT22;9632;51.018;4.284;2023-07-29T00:47:39;20.80;99.90
18998;DHT22;9632;51.018;4.284;2023-07-29T00:50:09;20.80;99.90
18998;DHT22;9632;51.018;4.284;2023-07-29T00:52:36;20.80;99.90
18998;DHT22;9632;51.018;4.284;2023-07-29T00:55:03;20.80;99.90
18998;DHT22;9632;51.018;4.284;2023-07-29T00:57:30;20.70;99.90
18998;DHT22;9632;51.018;4.284;2023-07-29T00:59:55;20.70;99.90
18998;DHT22;9632;51.018;4.284;2023-07-29T01:02:21;20.70;99.90
18998;DHT22;9632;51.018;4.284;2023-07-29T01:04:53;20.70;99.90
18998;DHT22;9632;51.018;4.284;2023-07-29T01:07:39;20.70;99.90
18998;DHT22;9632;51.018;4.284;2023-07-29T01:15:57;20.60;99.90
18998;DHT22;9632;51.018;4.284;2023-07-29T01:18:29;20.50;99.90
18998;DHT22;9632;51.018;4.284;2023-07-29T01:21:01;20.50;99.90
18998;DHT22;9632;51.018;4.284;2023-07-29T01:23:32;20.50;99.90
18998;DHT22;9632;51.018;4.284;2023-07-29T01:25:59;20.50;99.90
18998;DHT22;9632;51.018;4.284;2023-07-29T01:28:25;20.50;99.90
18998;DHT22;9632;51.018;4.284;2023-07-29T01:31:10;20.50;99.90
18998;DHT22;9632;51.018;4.284;2023-07-29T01:33:40;20.50;99.90
18998;DHT22;9632;51.018;4.284;2023-07-29T01:36:12;20.50;99.90
18998;DHT22;9632;51.018;4.284;2023-07-29T01:38:41;20.40;99.90
18998;DHT22;9632;51.018;4.284;2023-07-29T01:41:08;20.40;99.90
18998;DHT22;9632;51.018;4.284;2023-07-29T01:43:34;20.40;99.90
18998;DHT22;9632;51.018;4.284;2023-07-29T01:46:07;20.40;99.90
18998;DHT22;9632;51.018;4.284;2023-07-29T01:48:32;20.40;99.90
18998;DHT22;9632;51.018;4.284;2023-07-29T01:50:58;20.40;99.90
18998;DHT22;9632;51.018;4.284;2023-07-29T01:53:24;20.30;99.90
18998;DHT22;9632;51.018;4.284;2023-07-29T01:55:49;20.30;99.90
18998;DHT22;9632;51.018;4.284;2023-07-29T01:58:15;20.40;99.90
18998;DHT22;9632;51.018;4.284;2023-07-29T02:00:41;20.30;99.90
18998;DHT22;9632;51.018;4.284;2023-07-29T02:03:06;20.30;99.90
18998;DHT22;9632;51.018;4.284;2023-07-29T02:05:32;20.30;99.90
18998;DHT22;9632;51.018;4.284;2023-07-29T02:07:58;20.30;99.90
18998;DHT22;9632;51.018;4.284;2023-07-29T02:10:23;20.20;99.90
18998;DHT22;9632;51.018;4.284;2023-07-29T02:12:49;20.20;99.90
18998;DHT22;9632;51.018;4.284;2023-07-29T02:15:15;20.20;99.90
18998;DHT22;9632;51.018;4.284;2023-07-29T02:17:42;20.20;99.90
18998;DHT22;9632;51.018;4.284;2023-07-29T02:20:08;20.20;99.90
18998;DHT22;9632;51.018;4.284;2023-07-29T02:22:34;20.10;99.90
18998;DHT22;9632;51.018;4.284;2023-07-29T02:25:00;20.10;99.90
18998;DHT22;9632;51.018;4.284;2023-07-29T02:27:26;20.10;99.90
18998;DHT22;9632;51.018;4.284;2023-07-29T02:29:53;20.10;99.90
18998;DHT22;9632;51.018;4.284;2023-07-29T02:32:19;20.10;99.90
18998;DHT22;9632;51.018;4.284;2023-07-29T02:34:45;20.10;99.90
18998;DHT22;9632;51.018;4.284;2023-07-29T02:37:10;20.00;99.90
18998;DHT22;9632;51.018;4.284;2023-07-29T02:39:37;20.10;99.90
18998;DHT22;9632;51.018;4.284;2023-07-29T02:42:03;20.10;99.90
18998;DHT22;9632;51.018;4.284;2023-07-29T02:44:28;20.00;99.90
18998;DHT22;9632;51.018;4.284;2023-07-29T02:46:54;20.10;99.90
18998;DHT22;9632;51.018;4.284;2023-07-29T02:49:22;20.10;99.90
18998;DHT22;9632;51.018;4.284;2023-07-29T02:51:47;20.00;99.90
18998;DHT22;9632;51.018;4.284;2023-07-29T02:54:13;20.00;99.90
18998;DHT22;9632;51.018;4.284;2023-07-29T02:56:39;20.00;99.90
18998;DHT22;9632;51.018;4.284;2023-07-29T02:59:04;19.90;99.90
18998;DHT22;9632;51.018;4.284;2023-07-29T03:01:31;19.90;99.90
18998;DHT22;9632;51.018;4.284;2023-07-29T03:03:56;19.90;99.90
18998;DHT22;9632;51.018;4.284;2023-07-29T03:06:23;19.90;99.90
18998;DHT22;9632;51.018;4.284;2023-07-29T03:08:49;19.90;99.90
18998;DHT22;9632;51.018;4.284;2023-07-29T03:11:15;19.90;99.90
18998;DHT22;9632;51.018;4.284;2023-07-29T03:13:42;19.90;99.90
18998;DHT22;9632;51.018;4.284;2023-07-29T03:16:09;19.90;99.90
18998;DHT22;9632;51.018;4.284;2023-07-29T03:18:35;19.90;99.90
18998;DHT22;9632;51.018;4.284;2023-07-29T03:21:02;19.90;99.90
18998;DHT22;9632;51.018;4.284;2023-07-29T03:23:28;19.90;99.90
18998;DHT22;9632;51.018;4.284;2023-07-29T03:25:59;19.90;99.90
18998;DHT22;9632;51.018;4.284;2023-07-29T03:28:29;19.90;99.90
18998;DHT22;9632;51.018;4.284;2023-07-29T03:30:55;19.80;99.90
18998;DHT22;9632;51.018;4.284;2023-07-29T03:33:21;19.90;99.90
18998;DHT22;9632;51.018;4.284;2023-07-29T03:35:47;19.80;99.90
18998;DHT22;9632;51.018;4.284;2023-07-29T03:38:12;19.80;99.90
18998;DHT22;9632;51.018;4.284;2023-07-29T03:40:39;19.80;99.90
18998;DHT22;9632;51.018;4.284;2023-07-29T03:43:04;19.80;99.90
18998;DHT22;9632;51.018;4.284;2023-07-29T03:45:31;19.80;99.90
18998;DHT22;9632;51.018;4.284;2023-07-29T03:47:56;19.80;99.90
18998;DHT22;9632;51.018;4.284;2023-07-29T03:50:22;19.80;99.90
18998;DHT22;9632;51.018;4.284;2023-07-29T03:52:48;19.80;99.90
18998;DHT22;9632;51.018;4.284;2023-07-29T03:55:13;19.80;99.90
18998;DHT22;9632;51.018;4.284;2023-07-29T03:57:39;19.70;99.90
18998;DHT22;9632;51.018;4.284;2023-07-29T04:00:05;19.70;99.90
18998;DHT22;9632;51.018;4.284;2023-07-29T04:02:31;19.70;99.90
18998;DHT22;9632;51.018;4.284;2023-07-29T04:04:57;19.70;99.90
18998;DHT22;9632;51.018;4.284;2023-07-29T04:07:22;19.60;99.90
18998;DHT22;9632;51.018;4.284;2023-07-29T04:09:48;19.60;99.90
18998;DHT22;9632;51.018;4.284;2023-07-29T04:12:15;19.60;99.90
18998;DHT22;9632;51.018;4.284;2023-07-29T04:14:40;19.60;99.90
18998;DHT22;9632;51.018;4.284;2023-07-29T04:17:07;19.70;99.90
18998;DHT22;9632;51.018;4.284;2023-07-29T04:19:33;19.70;99.90
18998;DHT22;9632;51.018;4.284;2023-07-29T04:21:58;19.60;99.90
18998;DHT22;9632;51.018;4.284;2023-07-29T04:24:24;19.70;99.90
18998;DHT22;9632;51.018;4.284;2023-07-29T04:26:50;19.70;99.90
18998;DHT22;9632;51.018;4.284;2023-07-29T04:29:16;19.60;99.90
18998;DHT22;9632;51.018;4.284;2023-07-29T04:31:41;19.60;99.90
18998;DHT22;9632;51.018;4.284;2023-07-29T04:34:08;19.60;99.90
18998;DHT22;9632;51.018;4.284;2023-07-29T04:36:33;19.60;99.90
18998;DHT22;9632;51.018;4.284;2023-07-29T04:38:59;19.50;99.90
18998;DHT22;9632;51.018;4.284;2023-07-29T04:41:24;19.60;99.90
18998;DHT22;9632;51.018;4.284;2023-07-29T04:43:50;19.60;99.90
18998;DHT22;9632;51.018;4.284;2023-07-29T04:46:16;19.60;99.90
18998;DHT22;9632;51.018;4.284;2023-07-29T04:48:42;19.60;99.90
18998;DHT22;9632;51.018;4.284;2023-07-29T04:51:07;19.60;99.90
18998;DHT22;9632;51.018;4.284;2023-07-29T04:53:33;19.60;99.90
18998;DHT22;9632;51.018;4.284;2023-07-29T04:56:00;19.60;99.90
18998;DHT22;9632;51.018;4.284;2023-07-29T04:58:26;19.60;99.90
18998;DHT22;9632;51.018;4.284;2023-07-29T05:00:54;19.60;99.90
18998;DHT22;9632;51.018;4.284;2023-07-29T05:03:19;19.50;99.90
18998;DHT22;9632;51.018;4.284;2023-07-29T05:05:45;19.50;99.90
18998;DHT22;9632;51.018;4.284;2023-07-29T05:08:11;19.60;99.90
18998;DHT22;9632;51.018;4.284;2023-07-29T05:10:36;19.50;99.90
18998;DHT22;9632;51.018;4.284;2023-07-29T05:13:02;19.50;99.90
18998;DHT22;9632;51.018;4.284;2023-07-29T05:15:28;19.50;99.90
18998;DHT22;9632;51.018;4.284;2023-07-29T05:17:53;19.60;99.90
18998;DHT22;9632;51.018;4.284;2023-07-29T05:20:19;19.60;99.90
18998;DHT22;9632;51.018;4.284;2023-07-29T05:22:44;19.60;99.90
18998;DHT22;9632;51.018;4.284;2023-07-29T05:25:10;19.70;99.90
18998;DHT22;9632;51.018;4.284;2023-07-29T05:27:36;19.70;99.90
18998;DHT22;9632;51.018;4.284;2023-07-29T05:30:01;19.70;99.90
18998;DHT22;9632;51.018;4.284;2023-07-29T05:32:27;19.70;99.90
18998;DHT22;9632;51.018;4.284;2023-07-29T05:34:53;19.70;99.90
18998;DHT22;9632;51.018;4.284;2023-07-29T05:37:18;19.70;99.90
18998;DHT22;9632;51.018;4.284;2023-07-29T05:39:44;19.70;99.90
18998;DHT22;9632;51.018;4.284;2023-07-29T05:42:09;19.80;99.90
18998;DHT22;9632;51.018;4.284;2023-07-29T05:44:35;19.90;99.90
18998;DHT22;9632;51.018;4.284;2023-07-29T05:47:01;20.00;99.90
18998;DHT22;9632;51.018;4.284;2023-07-29T05:49:26;20.10;99.90
18998;DHT22;9632;51.018;4.284;2023-07-29T05:51:52;20.20;99.90
18998;DHT22;9632;51.018;4.284;2023-07-29T05:54:19;20.30;99.90
18998;DHT22;9632;51.018;4.284;2023-07-29T05:56:44;20.40;99.90
18998;DHT22;9632;51.018;4.284;2023-07-29T05:59:10;20.50;99.90
18998;DHT22;9632;51.018;4.284;2023-07-29T06:01:36;20.70;99.90
18998;DHT22;9632;51.018;4.284;2023-07-29T06:04:01;20.90;99.90
18998;DHT22;9632;51.018;4.284;2023-07-29T06:06:27;21.00;99.90
18998;DHT22;9632;51.018;4.284;2023-07-29T06:08:53;21.20;99.90
18998;DHT22;9632;51.018;4.284;2023-07-29T06:11:19;21.40;99.90
18998;DHT22;9632;51.018;4.284;2023-07-29T06:13:45;21.40;99.90
18998;DHT22;9632;51.018;4.284;2023-07-29T06:16:11;21.60;99.90
18998;DHT22;9632;51.018;4.284;2023-07-29T06:18:37;21.70;99.90
18998;DHT22;9632;51.018;4.284;2023-07-29T06:21:02;21.90;99.90
18998;DHT22;9632;51.018;4.284;2023-07-29T06:23:33;22.10;99.90
18998;DHT22;9632;51.018;4.284;2023-07-29T06:25:58;22.20;99.90
18998;DHT22;9632;51.018;4.284;2023-07-29T06:28:26;22.30;99.90
18998;DHT22;9632;51.018;4.284;2023-07-29T06:30:52;22.30;99.90
18998;DHT22;9632;51.018;4.284;2023-07-29T06:33:18;22.40;99.90
18998;DHT22;9632;51.018;4.284;2023-07-29T06:35:43;22.40;99.90
18998;DHT22;9632;51.018;4.284;2023-07-29T06:38:09;22.20;99.90
18998;DHT22;9632;51.018;4.284;2023-07-29T06:40:35;22.00;99.90
18998;DHT22;9632;51.018;4.284;2023-07-29T06:43:00;21.90;99.90
18998;DHT22;9632;51.018;4.284;2023-07-29T06:45:26;22.00;99.90
18998;DHT22;9632;51.018;4.284;2023-07-29T06:47:52;22.00;99.90
18998;DHT22;9632;51.018;4.284;2023-07-29T06:50:18;22.00;99.90
18998;DHT22;9632;51.018;4.284;2023-07-29T06:52:43;22.10;99.90
18998;DHT22;9632;51.018;4.284;2023-07-29T06:55:09;22.10;99.90
18998;DHT22;9632;51.018;4.284;2023-07-29T06:57:35;22.20;99.90
18998;DHT22;9632;51.018;4.284;2023-07-29T07:00:01;22.20;99.90
18998;DHT22;9632;51.018;4.284;2023-07-29T07:02:26;22.20;99.90
18998;DHT22;9632;51.018;4.284;2023-07-29T07:04:52;22.20;99.90
18998;DHT22;9632;51.018;4.284;2023-07-29T07:07:17;22.20;99.90
18998;DHT22;9632;51.018;4.284;2023-07-29T07:09:43;22.20;99.90
18998;DHT22;9632;51.018;4.284;2023-07-29T07:12:09;22.20;99.90
18998;DHT22;9632;51.018;4.284;2023-07-29T07:14:34;22.10;99.90
18998;DHT22;9632;51.018;4.284;2023-07-29T07:17:00;22.00;99.90
18998;DHT22;9632;51.018;4.284;2023-07-29T07:19:26;22.00;99.90
18998;DHT22;9632;51.018;4.284;2023-07-29T07:21:51;21.90;99.90
18998;DHT22;9632;51.018;4.284;2023-07-29T07:24:17;21.90;99.90
18998;DHT22;9632;51.018;4.284;2023-07-29T07:26:43;21.90;99.90
18998;DHT22;9632;51.018;4.284;2023-07-29T07:29:08;21.90;99.90
18998;DHT22;9632;51.018;4.284;2023-07-29T07:31:34;21.90;99.90
18998;DHT22;9632;51.018;4.284;2023-07-29T07:34:00;21.80;99.90
18998;DHT22;9632;51.018;4.284;2023-07-29T07:36:27;21.90;99.90
18998;DHT22;9632;51.018;4.284;2023-07-29T07:38:53;21.90;99.90
18998;DHT22;9632;51.018;4.284;2023-07-29T07:41:18;22.00;99.90
18998;DHT22;9632;51.018;4.284;2023-07-29T07:43:44;22.10;99.90
18998;DHT22;9632;51.018;4.284;2023-07-29T07:46:10;22.20;99.90
18998;DHT22;9632;51.018;4.284;2023-07-29T07:48:35;22.40;99.90
18998;DHT22;9632;51.018;4.284;2023-07-29T07:51:10;22.40;99.90
18998;DHT22;9632;51.018;4.284;2023-07-29T07:53:36;22.50;99.90
18998;DHT22;9632;51.018;4.284;2023-07-29T07:56:02;22.50;99.90
18998;DHT22;9632;51.018;4.284;2023-07-29T07:58:27;22.60;99.90
18998;DHT22;9632;51.018;4.284;2023-07-29T08:01:04;22.70;99.90
18998;DHT22;9632;51.018;4.284;2023-07-29T08:03:30;22.80;99.90
18998;DHT22;9632;51.018;4.284;2023-07-29T08:05:55;22.90;99.90
18998;DHT22;9632;51.018;4.284;2023-07-29T08:08:21;23.00;99.90
18998;DHT22;9632;51.018;4.284;2023-07-29T08:10:46;23.10;99.90
18998;DHT22;9632;51.018;4.284;2023-07-29T08:13:12;23.20;99.90
18998;DHT22;9632;51.018;4.284;2023-07-29T08:15:38;23.20;99.90
18998;DHT22;9632;51.018;4.284;2023-07-29T08:18:03;23.30;99.90
18998;DHT22;9632;51.018;4.284;2023-07-29T08:20:29;23.40;99.90
18998;DHT22;9632;51.018;4.284;2023-07-29T08:22:54;23.50;99.90
18998;DHT22;9632;51.018;4.284;2023-07-29T08:25:20;23.60;99.90
18998;DHT22;9632;51.018;4.284;2023-07-29T08:27:46;23.70;99.90
18998;DHT22;9632;51.018;4.284;2023-07-29T08:30:11;23.80;99.90
18998;DHT22;9632;51.018;4.284;2023-07-29T08:32:37;23.90;99.90
18998;DHT22;9632;51.018;4.284;2023-07-29T08:35:03;24.00;99.90
18998;DHT22;9632;51.018;4.284;2023-07-29T08:37:29;24.10;99.90
18998;DHT22;9632;51.018;4.284;2023-07-29T08:39:55;24.20;99.90
18998;DHT22;9632;51.018;4.284;2023-07-29T08:42:21;24.30;99.90
18998;DHT22;9632;51.018;4.284;2023-07-29T08:44:49;24.30;99.90
18998;DHT22;9632;51.018;4.284;2023-07-29T08:47:18;24.50;99.90
18998;DHT22;9632;51.018;4.284;2023-07-29T08:49:46;24.60;99.90
18998;DHT22;9632;51.018;4.284;2023-07-29T08:52:14;24.60;99.90
18998;DHT22;9632;51.018;4.284;2023-07-29T08:54:40;24.70;99.90
18998;DHT22;9632;51.018;4.284;2023-07-29T08:57:06;24.80;99.90
18998;DHT22;9632;51.018;4.284;2023-07-29T08:59:33;24.80;99.90
18998;DHT22;9632;51.018;4.284;2023-07-29T09:01:59;24.90;99.90
18998;DHT22;9632;51.018;4.284;2023-07-29T09:04:25;24.90;99.90
18998;DHT22;9632;51.018;4.284;2023-07-29T09:06:51;24.90;99.90
18998;DHT22;9632;51.018;4.284;2023-07-29T09:09:19;24.90;99.90
18998;DHT22;9632;51.018;4.284;2023-07-29T09:11:45;24.80;99.90
18998;DHT22;9632;51.018;4.284;2023-07-29T09:14:12;24.70;99.90
18998;DHT22;9632;51.018;4.284;2023-07-29T09:16:38;24.70;99.90
18998;DHT22;9632;51.018;4.284;2023-07-29T09:19:04;24.60;99.90
18998;DHT22;9632;51.018;4.284;2023-07-29T09:21:31;24.60;99.90
18998;DHT22;9632;51.018;4.284;2023-07-29T09:23:57;24.50;99.90
18998;DHT22;9632;51.018;4.284;2023-07-29T09:26:28;24.60;99.90
18998;DHT22;9632;51.018;4.284;2023-07-29T09:28:55;24.50;99.90
18998;DHT22;9632;51.018;4.284;2023-07-29T09:31:23;24.40;99.90
18998;DHT22;9632;51.018;4.284;2023-07-29T09:33:49;24.40;99.90
18998;DHT22;9632;51.018;4.284;2023-07-29T09:36:15;24.40;99.90
18998;DHT22;9632;51.018;4.284;2023-07-29T09:38:41;24.30;99.90
18998;DHT22;9632;51.018;4.284;2023-07-29T09:41:09;24.30;99.90
18998;DHT22;9632;51.018;4.284;2023-07-29T09:43:36;24.20;99.90
18998;DHT22;9632;51.018;4.284;2023-07-29T09:46:03;24.20;99.90
18998;DHT22;9632;51.018;4.284;2023-07-29T09:48:37;24.10;99.90
18998;DHT22;9632;51.018;4.284;2023-07-29T09:51:13;24.00;99.90
18998;DHT22;9632;51.018;4.284;2023-07-29T09:53:49;23.80;99.90
18998;DHT22;9632;51.018;4.284;2023-07-29T09:56:15;23.80;99.90
18998;DHT22;9632;51.018;4.284;2023-07-29T09:58:46;23.80;99.90
18998;DHT22;9632;51.018;4.284;2023-07-29T10:01:13;23.90;99.90
18998;DHT22;9632;51.018;4.284;2023-07-29T10:03:40;24.00;99.90
18998;DHT22;9632;51.018;4.284;2023-07-29T10:06:07;24.10;99.90
18998;DHT22;9632;51.018;4.284;2023-07-29T10:08:33;24.00;99.90
18998;DHT22;9632;51.018;4.284;2023-07-29T10:11:08;24.00;99.90
18998;DHT22;9632;51.018;4.284;2023-07-29T10:13:35;24.10;99.90
18998;DHT22;9632;51.018;4.284;2023-07-29T10:16:02;24.20;99.90
18998;DHT22;9632;51.018;4.284;2023-07-29T10:18:29;24.30;99.90
18998;DHT22;9632;51.018;4.284;2023-07-29T10:20:57;24.40;99.90
18998;DHT22;9632;51.018;4.284;2023-07-29T10:23:25;24.40;99.90
18998;DHT22;9632;51.018;4.284;2023-07-29T10:26:17;24.20;99.90
18998;DHT22;9632;51.018;4.284;2023-07-29T10:28:47;24.20;99.90
18998;DHT22;9632;51.018;4.284;2023-07-29T10:31:15;24.20;99.90
18998;DHT22;9632;51.018;4.284;2023-07-29T10:33:42;24.20;99.90
18998;DHT22;9632;51.018;4.284;2023-07-29T10:36:08;24.30;99.90
18998;DHT22;9632;51.018;4.284;2023-07-29T10:38:35;24.30;99.90
18998;DHT22;9632;51.018;4.284;2023-07-29T10:41:00;24.30;99.90
18998;DHT22;9632;51.018;4.284;2023-07-29T10:43:38;24.40;99.90
18998;DHT22;9632;51.018;4.284;2023-07-29T10:46:20;24.40;99.90
18998;DHT22;9632;51.018;4.284;2023-07-29T10:48:54;24.40;99.90
18998;DHT22;9632;51.018;4.284;2023-07-29T10:53:56;24.40;99.90
18998;DHT22;9632;51.018;4.284;2023-07-29T10:56:36;24.40;99.90
18998;DHT22;9632;51.018;4.284;2023-07-29T11:02:03;24.40;99.90
18998;DHT22;9632;51.018;4.284;2023-07-29T11:04:46;24.30;99.90
18998;DHT22;9632;51.018;4.284;2023-07-29T11:09:58;24.40;99.90
18998;DHT22;9632;51.018;4.284;2023-07-29T11:20:08;24.30;99.90
18998;DHT22;9632;51.018;4.284;2023-07-29T11:22:34;24.20;99.90
18998;DHT22;9632;51.018;4.284;2023-07-29T11:25:00;24.20;99.90
18998;DHT22;9632;51.018;4.284;2023-07-29T11:27:26;24.20;99.90
18998;DHT22;9632;51.018;4.284;2023-07-29T11:29:57;24.20;99.90
18998;DHT22;9632;51.018;4.284;2023-07-29T11:32:24;24.20;99.90
18998;DHT22;9632;51.018;4.284;2023-07-29T11:34:50;24.20;99.90
18998;DHT22;9632;51.018;4.284;2023-07-29T11:37:17;24.10;99.90
18998;DHT22;9632;51.018;4.284;2023-07-29T11:39:43;24.10;99.90
18998;DHT22;9632;51.018;4.284;2023-07-29T11:42:16;24.10;99.90
18998;DHT22;9632;51.018;4.284;2023-07-29T11:44:42;24.20;99.90
18998;DHT22;9632;51.018;4.284;2023-07-29T11:47:12;24.40;99.90
18998;DHT22;9632;51.018;4.284;2023-07-29T11:49:41;24.50;99.90
18998;DHT22;9632;51.018;4.284;2023-07-29T11:52:10;24.60;99.90
18998;DHT22;9632;51.018;4.284;2023-07-29T11:54:38;24.60;99.90
18998;DHT22;9632;51.018;4.284;2023-07-29T11:57:06;24.50;99.90
18998;DHT22;9632;51.018;4.284;2023-07-29T11:59:34;24.50;99.90
18998;DHT22;9632;51.018;4.284;2023-07-29T12:02:12;24.40;99.90
18998;DHT22;9632;51.018;4.284;2023-07-29T12:04:39;24.30;99.90
18998;DHT22;9632;51.018;4.284;2023-07-29T12:07:06;24.20;99.90
18998;DHT22;9632;51.018;4.284;2023-07-29T12:09:31;24.20;99.90
18998;DHT22;9632;51.018;4.284;2023-07-29T12:11:58;24.10;99.90
18998;DHT22;9632;51.018;4.284;2023-07-29T12:14:28;24.00;99.90
18998;DHT22;9632;51.018;4.284;2023-07-29T12:16:54;23.90;99.90
18998;DHT22;9632;51.018;4.284;2023-07-29T12:19:20;23.90;99.90
18998;DHT22;9632;51.018;4.284;2023-07-29T12:21:48;24.00;99.90
18998;DHT22;9632;51.018;4.284;2023-07-29T12:24:14;24.00;99.90
18998;DHT22;9632;51.018;4.284;2023-07-29T12:26:42;24.20;99.90
18998;DHT22;9632;51.018;4.284;2023-07-29T12:29:14;24.30;99.90
18998;DHT22;9632;51.018;4.284;2023-07-29T12:31:40;24.50;99.90
18998;DHT22;9632;51.018;4.284;2023-07-29T12:34:06;24.60;99.90
18998;DHT22;9632;51.018;4.284;2023-07-29T12:36:49;24.70;99.90
18998;DHT22;9632;51.018;4.284;2023-07-29T12:39:19;24.80;99.90
18998;DHT22;9632;51.018;4.284;2023-07-29T12:41:46;24.80;99.90
18998;DHT22;9632;51.018;4.284;2023-07-29T12:44:11;24.90;99.90
18998;DHT22;9632;51.018;4.284;2023-07-29T12:46:37;25.00;99.90
18998;DHT22;9632;51.018;4.284;2023-07-29T12:49:03;25.00;99.90
18998;DHT22;9632;51.018;4.284;2023-07-29T12:51:28;25.10;99.90
18998;DHT22;9632;51.018;4.284;2023-07-29T12:53:54;25.10;99.90
18998;DHT22;9632;51.018;4.284;2023-07-29T12:56:20;25.10;99.90
18998;DHT22;9632;51.018;4.284;2023-07-29T12:58:46;25.10;99.90
18998;DHT22;9632;51.018;4.284;2023-07-29T13:01:12;25.10;99.90
18998;DHT22;9632;51.018;4.284;2023-07-29T13:03:47;25.20;99.90
18998;DHT22;9632;51.018;4.284;2023-07-29T13:06:13;25.30;99.90
18998;DHT22;9632;51.018;4.284;2023-07-29T13:08:38;25.40;99.90
18998;DHT22;9632;51.018;4.284;2023-07-29T13:11:04;25.40;99.90
18998;DHT22;9632;51.018;4.284;2023-07-29T13:13:30;25.40;99.90
18998;DHT22;9632;51.018;4.284;2023-07-29T13:15:57;25.50;99.90
18998;DHT22;9632;51.018;4.284;2023-07-29T13:18:23;25.60;99.90
18998;DHT22;9632;51.018;4.284;2023-07-29T13:20:48;25.60;99.90
18998;DHT22;9632;51.018;4.284;2023-07-29T13:23:15;25.60;99.90
18998;DHT22;9632;51.018;4.284;2023-07-29T13:25:41;25.70;99.90
18998;DHT22;9632;51.018;4.284;2023-07-29T13:28:08;25.70;99.90
18998;DHT22;9632;51.018;4.284;2023-07-29T13:30:34;25.80;99.90
18998;DHT22;9632;51.018;4.284;2023-07-29T13:32:59;25.90;99.90
18998;DHT22;9632;51.018;4.284;2023-07-29T13:35:25;25.90;99.90
18998;DHT22;9632;51.018;4.284;2023-07-29T13:37:51;26.00;99.90
18998;DHT22;9632;51.018;4.284;2023-07-29T13:40:16;26.10;99.90
18998;DHT22;9632;51.018;4.284;2023-07-29T13:42:42;26.20;99.90
18998;DHT22;9632;51.018;4.284;2023-07-29T13:45:08;26.20;99.90
18998;DHT22;9632;51.018;4.284;2023-07-29T13:47:34;26.20;99.90
18998;DHT22;9632;51.018;4.284;2023-07-29T13:50:00;26.00;99.90
18998;DHT22;9632;51.018;4.284;2023-07-29T13:52:26;26.00;99.90
18998;DHT22;9632;51.018;4.284;2023-07-29T13:54:51;26.00;99.90
18998;DHT22;9632;51.018;4.284;2023-07-29T13:57:17;26.00;99.90
18998;DHT22;9632;51.018;4.284;2023-07-29T13:59:43;26.00;99.90
18998;DHT22;9632;51.018;4.284;2023-07-29T14:02:08;26.00;99.90
18998;DHT22;9632;51.018;4.284;2023-07-29T14:04:34;26.00;99.90
18998;DHT22;9632;51.018;4.284;2023-07-29T14:07:00;26.00;99.90
18998;DHT22;9632;51.018;4.284;2023-07-29T14:09:26;26.10;99.90
18998;DHT22;9632;51.018;4.284;2023-07-29T14:11:53;26.00;99.90
18998;DHT22;9632;51.018;4.284;2023-07-29T14:14:19;26.00;99.90
18998;DHT22;9632;51.018;4.284;2023-07-29T14:16:44;26.00;99.90
18998;DHT22;9632;51.018;4.284;2023-07-29T14:19:10;26.00;99.90
18998;DHT22;9632;51.018;4.284;2023-07-29T14:21:36;25.90;99.90
18998;DHT22;9632;51.018;4.284;2023-07-29T14:24:01;25.80;99.90
18998;DHT22;9632;51.018;4.284;2023-07-29T14:26:27;25.70;99.90
18998;DHT22;9632;51.018;4.284;2023-07-29T14:28:53;25.60;99.90
18998;DHT22;9632;51.018;4.284;2023-07-29T14:31:21;25.20;99.90
18998;DHT22;9632;51.018;4.284;2023-07-29T14:33:47;25.00;99.90
18998;DHT22;9632;51.018;4.284;2023-07-29T14:36:15;24.90;99.90
18998;DHT22;9632;51.018;4.284;2023-07-29T14:38:41;24.70;99.90
18998;DHT22;9632;51.018;4.284;2023-07-29T14:41:07;24.60;99.90
18998;DHT22;9632;51.018;4.284;2023-07-29T14:43:33;24.40;99.90
18998;DHT22;9632;51.018;4.284;2023-07-29T14:45:58;24.20;99.90
18998;DHT22;9632;51.018;4.284;2023-07-29T14:48:24;24.10;99.90
18998;DHT22;9632;51.018;4.284;2023-07-29T14:50:50;24.00;99.90
18998;DHT22;9632;51.018;4.284;2023-07-29T14:53:15;24.00;99.90
18998;DHT22;9632;51.018;4.284;2023-07-29T14:55:41;24.00;99.90
18998;DHT22;9632;51.018;4.284;2023-07-29T14:58:07;24.00;99.90
18998;DHT22;9632;51.018;4.284;2023-07-29T15:00:32;24.00;99.90
18998;DHT22;9632;51.018;4.284;2023-07-29T15:02:58;24.00;99.90
18998;DHT22;9632;51.018;4.284;2023-07-29T15:05:24;24.00;99.90
18998;DHT22;9632;51.018;4.284;2023-07-29T15:07:50;24.00;99.90
18998;DHT22;9632;51.018;4.284;2023-07-29T15:10:16;24.00;99.90
18998;DHT22;9632;51.018;4.284;2023-07-29T15:12:43;24.00;99.90
18998;DHT22;9632;51.018;4.284;2023-07-29T15:15:10;24.00;99.90
18998;DHT22;9632;51.018;4.284;2023-07-29T15:17:35;23.90;99.90
18998;DHT22;9632;51.018;4.284;2023-07-29T15:20:02;23.90;99.90
18998;DHT22;9632;51.018;4.284;2023-07-29T15:22:29;23.90;99.90
18998;DHT22;9632;51.018;4.284;2023-07-29T15:24:55;23.90;99.90
18998;DHT22;9632;51.018;4.284;2023-07-29T15:27:20;23.80;99.90
18998;DHT22;9632;51.018;4.284;2023-07-29T15:29:47;23.80;99.90
18998;DHT22;9632;51.018;4.284;2023-07-29T15:32:13;23.80;99.90
18998;DHT22;9632;51.018;4.284;2023-07-29T15:34:39;23.70;99.90
18998;DHT22;9632;51.018;4.284;2023-07-29T15:37:04;23.80;99.90
18998;DHT22;9632;51.018;4.284;2023-07-29T15:39:30;23.90;99.90
18998;DHT22;9632;51.018;4.284;2023-07-29T15:41:56;23.90;99.90
18998;DHT22;9632;51.018;4.284;2023-07-29T15:44:22;24.00;99.90
18998;DHT22;9632;51.018;4.284;2023-07-29T15:46:48;24.00;99.90
18998;DHT22;9632;51.018;4.284;2023-07-29T15:49:17;23.90;99.90
18998;DHT22;9632;51.018;4.284;2023-07-29T15:51:42;23.80;99.90
18998;DHT22;9632;51.018;4.284;2023-07-29T15:54:08;23.80;99.90
18998;DHT22;9632;51.018;4.284;2023-07-29T15:56:34;23.80;99.90
18998;DHT22;9632;51.018;4.284;2023-07-29T15:59:04;23.70;99.90
18998;DHT22;9632;51.018;4.284;2023-07-29T16:01:29;23.80;99.90
18998;DHT22;9632;51.018;4.284;2023-07-29T16:03:55;23.70;99.90